Time;durP1;ratioP1;P1;durP2;ratioP2;P2;SDS_P1;SDS_P2;PMS_P1;PMS_P2;Temp;Humidity;BMP_temperature;BMP_pressure;BME280_temperature;BME280_humidity;BME280_pressure;Samples;Min_cycle;Max_cycle;Signal;HPM_P1;HPM_P2
2023/05/28 00:00:15;;;;;;;4.75;4.18;;;;;;;16.32;62.72;94882.69;5069394;28;20023;-76
2023/05/28 00:02:40;;;;;;;5.50;4.70;;;;;;;16.30;62.42;94883.16;5069961;28;20036;-77
2023/05/28 00:05:06;;;;;;;4.68;3.85;;;;;;;16.29;62.62;94884.41;5087249;28;20135;-76
2023/05/28 00:07:32;;;;;;;4.07;3.67;;;;;;;16.30;62.71;94885.19;5069939;28;20024;-75
2023/05/28 00:09:58;;;;;;;4.70;3.92;;;;;;;16.29;62.46;94889.97;5086023;28;20024;-76
2023/05/28 00:12:25;;;;;;;4.68;3.92;;;;;;;16.31;62.43;94892.25;5089241;28;20043;-76
2023/05/28 00:14:50;;;;;;;7.25;3.67;;;;;;;16.37;62.21;94895.91;5070239;28;20170;-76
2023/05/28 00:17:16;;;;;;;5.50;3.80;;;;;;;16.33;62.36;94892.53;5087880;28;20055;-76
2023/05/28 00:19:43;;;;;;;4.30;3.70;;;;;;;16.32;62.16;94900.09;5069508;28;20024;-76
2023/05/28 00:22:08;;;;;;;6.32;4.10;;;;;;;16.34;62.29;94897.59;5086027;28;20055;-76
2023/05/28 00:24:34;;;;;;;12.43;4.18;;;;;;;16.36;62.31;94897.16;5069394;28;20624;-76
2023/05/28 00:26:59;;;;;;;5.05;4.03;;;;;;;16.30;61.97;94880.41;5068792;28;20081;-75
2023/05/28 00:29:26;;;;;;;4.55;4.05;;;;;;;16.28;61.95;94884.88;5086089;28;20945;-76
2023/05/28 00:31:55;;;;;;;5.97;4.07;;;;;;;16.26;62.16;94885.34;5085571;28;20027;-76
2023/05/28 00:34:21;;;;;;;5.00;4.07;;;;;;;16.29;61.95;94878.88;5085891;28;20466;-76
2023/05/28 00:36:46;;;;;;;4.82;3.92;;;;;;;16.27;62.06;94875.03;5086011;28;20494;-76
2023/05/28 00:39:18;;;;;;;4.28;3.88;;;;;;;16.25;62.24;94877.50;5087092;28;20050;-76
2023/05/28 00:41:43;;;;;;;6.00;4.05;;;;;;;16.22;62.18;94868.13;5086308;28;20562;-76
2023/05/28 00:44:09;;;;;;;6.47;4.13;;;;;;;16.27;62.13;94866.69;5085337;28;20103;-77
2023/05/28 00:46:35;;;;;;;5.15;4.15;;;;;;;16.24;61.95;94862.13;5068901;28;20063;-76
2023/05/28 00:49:01;;;;;;;6.95;4.25;;;;;;;16.24;61.78;94864.91;5068269;28;20067;-76
2023/05/28 00:51:27;;;;;;;4.93;3.70;;;;;;;16.21;61.87;94866.59;5085647;28;20039;-75
2023/05/28 00:53:53;;;;;;;4.50;3.85;;;;;;;16.17;61.83;94861.25;5085204;28;20032;-75
2023/05/28 00:56:18;;;;;;;5.32;3.97;;;;;;;16.24;61.62;94862.13;5085348;28;20106;-76
2023/05/28 00:58:48;;;;;;;4.93;4.07;;;;;;;16.25;61.73;94867.19;5085756;28;20032;-75
2023/05/28 01:01:13;;;;;;;6.10;3.65;;;;;;;16.23;61.79;94866.13;5091437;28;20028;-75
2023/05/28 01:03:39;;;;;;;4.90;3.53;;;;;;;16.24;61.78;94862.13;5092642;28;20078;-75
2023/05/28 01:06:14;;;;;;;6.20;4.32;;;;;;;16.27;61.88;94867.47;5086972;28;20035;-75
2023/05/28 01:08:40;;;;;;;3.92;3.53;;;;;;;16.29;61.90;94867.78;5089686;28;20024;-75
2023/05/28 01:11:09;;;;;;;6.75;4.03;;;;;;;16.32;61.95;94863.28;5084928;28;20060;-76
2023/05/28 01:13:35;;;;;;;7.20;4.22;;;;;;;16.32;61.55;94866.81;5068170;28;20462;-76
2023/05/28 01:16:01;;;;;;;3.72;3.33;;;;;;;16.32;61.96;94864.03;5086653;28;20104;-76
2023/05/28 01:18:27;;;;;;;5.13;3.90;;;;;;;16.27;61.80;94852.84;5084640;28;20444;-76
2023/05/28 01:20:53;;;;;;;5.35;3.75;;;;;;;16.25;61.93;94860.88;5085513;28;20047;-76
2023/05/28 01:23:23;;;;;;;4.68;3.78;;;;;;;16.24;61.85;94848.25;5084393;28;20047;-77
2023/05/28 01:25:52;;;;;;;5.38;3.75;;;;;;;16.23;61.86;94841.94;5086644;28;20430;-76
2023/05/28 01:28:19;;;;;;;5.20;3.75;;;;;;;16.24;62.19;94846.25;5084544;28;20410;-76
2023/05/28 01:30:45;;;;;;;5.38;3.80;;;;;;;16.21;61.74;94833.31;5068054;28;20032;-76
2023/05/28 01:33:11;;;;;;;7.20;3.65;;;;;;;16.20;61.83;94829.00;5086160;28;20028;-74
2023/05/28 01:35:40;;;;;;;9.88;3.67;;;;;;;16.19;61.79;94835.81;5067485;28;20031;-75
2023/05/28 01:38:10;;;;;;;7.63;4.20;;;;;;;16.23;61.68;94844.72;5085096;28;20510;-76
2023/05/28 01:40:36;;;;;;;4.78;3.45;;;;;;;16.25;61.83;94841.47;5085739;28;20085;-75
2023/05/28 01:43:03;;;;;;;4.35;3.95;;;;;;;16.25;61.62;94850.53;5068192;28;20016;-76
2023/05/28 01:45:29;;;;;;;4.68;4.03;;;;;;;16.25;61.54;94838.69;5085228;28;20026;-76
2023/05/28 01:47:54;;;;;;;4.78;3.78;;;;;;;16.24;61.64;94837.16;5084453;28;20032;-76
2023/05/28 01:50:20;;;;;;;4.35;3.80;;;;;;;16.25;61.87;94845.00;5084755;28;20028;-76
2023/05/28 01:52:46;;;;;;;3.95;3.42;;;;;;;16.23;61.55;94836.41;5084377;28;20024;-76
2023/05/28 01:55:13;;;;;;;4.53;3.78;;;;;;;16.24;61.70;94834.38;5084680;28;20023;-76
2023/05/28 01:57:38;;;;;;;4.20;3.50;;;;;;;16.25;61.89;94841.47;5067132;28;20024;-77
2023/05/28 02:00:06;;;;;;;4.30;3.90;;;;;;;16.26;61.65;94829.13;5067734;28;20414;-76
2023/05/28 02:02:34;;;;;;;5.70;3.78;;;;;;;16.28;61.38;94834.94;5067387;28;20028;-77
2023/05/28 02:04:59;;;;;;;5.35;3.70;;;;;;;16.22;61.36;94837.59;5089308;28;20040;-75
2023/05/28 02:07:26;;;;;;;4.55;3.97;;;;;;;16.23;61.36;94827.28;5088636;28;20031;-76
2023/05/28 02:09:52;;;;;;;5.43;3.78;;;;;;;16.19;61.75;94824.72;5084355;28;20132;-78
2023/05/28 02:12:17;;;;;;;4.50;3.78;;;;;;;16.22;61.77;94834.84;5085759;28;20198;-75
2023/05/28 02:14:44;;;;;;;4.60;3.72;;;;;;;16.20;61.61;94843.66;5083044;28;20047;-76
2023/05/28 02:17:10;;;;;;;5.18;3.92;;;;;;;16.22;61.79;94839.63;5067552;28;20077;-75
2023/05/28 02:19:35;;;;;;;5.63;4.30;;;;;;;16.25;61.48;94835.91;5083139;28;20032;-76
2023/05/28 02:22:01;;;;;;;5.90;3.78;;;;;;;16.24;61.58;94843.47;5085854;28;20024;-75
2023/05/28 02:24:27;;;;;;;4.97;3.95;;;;;;;16.27;61.66;94836.19;5083606;28;20085;-75
2023/05/28 02:26:53;;;;;;;4.72;3.67;;;;;;;16.27;61.55;94839.72;5083870;28;20024;-76
2023/05/28 02:29:19;;;;;;;7.15;3.58;;;;;;;16.26;61.57;94845.75;5083948;28;20066;-76
2023/05/28 02:31:44;;;;;;;4.45;3.88;;;;;;;16.27;61.64;94844.50;5083830;28;20107;-77
2023/05/28 02:34:10;;;;;;;5.75;3.70;;;;;;;16.30;61.57;94849.13;5085237;28;20390;-76
2023/05/28 02:36:35;;;;;;;3.65;3.22;;;;;;;16.28;61.45;94840.50;5083147;28;20085;-76
2023/05/28 02:39:01;;;;;;;4.55;3.50;;;;;;;16.29;61.84;94840.03;5084321;28;20024;-76
2023/05/28 02:41:26;;;;;;;5.57;3.80;;;;;;;16.26;61.52;94838.19;5083109;28;20474;-76
2023/05/28 02:43:53;;;;;;;4.78;3.70;;;;;;;16.31;61.48;94843.09;5083652;28;20027;-75
2023/05/28 02:46:18;;;;;;;6.32;3.80;;;;;;;16.29;61.46;94839.28;5083284;28;20039;-76
2023/05/28 02:48:45;;;;;;;7.13;3.78;;;;;;;16.27;61.64;94836.19;5084722;28;20085;-76
2023/05/28 02:51:11;;;;;;;4.88;3.83;;;;;;;16.26;61.54;94832.66;5083832;28;20016;-76
2023/05/28 02:53:36;;;;;;;5.70;4.05;;;;;;;16.28;61.53;94838.47;5083273;28;20046;-76
2023/05/28 02:56:02;;;;;;;3.75;3.33;;;;;;;16.30;61.67;94841.56;5083820;28;20032;-76
2023/05/28 02:58:28;;;;;;;5.20;3.70;;;;;;;16.32;62.12;94841.84;5085698;28;20077;-76
2023/05/28 03:00:55;;;;;;;4.82;4.10;;;;;;;16.32;61.85;94841.84;5087319;28;20073;-76
2023/05/28 03:03:20;;;;;;;4.30;3.90;;;;;;;16.29;61.75;94839.28;5082762;28;20028;-76
2023/05/28 03:05:45;;;;;;;4.15;3.75;;;;;;;16.29;61.88;94842.81;5083486;28;20024;-76
2023/05/28 03:08:11;;;;;;;4.82;4.13;;;;;;;16.32;61.87;94838.31;5083229;28;20023;-76
2023/05/28 03:10:36;;;;;;;5.95;3.90;;;;;;;16.33;61.86;94837.06;5067050;28;20045;-76
2023/05/28 03:13:02;;;;;;;5.40;3.63;;;;;;;16.38;61.84;94842.69;5072077;28;20483;-76
2023/05/28 03:15:29;;;;;;;4.95;3.80;;;;;;;16.40;61.68;94837.47;5084985;28;20371;-76
2023/05/28 03:17:55;;;;;;;6.22;3.47;;;;;;;16.43;61.93;94844.81;5083499;28;20052;-76
2023/05/28 03:20:21;;;;;;;4.43;3.63;;;;;;;16.45;61.73;94845.09;5065962;28;20109;-75
2023/05/28 03:22:48;;;;;;;5.47;3.97;;;;;;;16.45;61.49;94849.88;5083640;28;20020;-75
2023/05/28 03:25:14;;;;;;;4.53;3.80;;;;;;;16.44;61.54;94840.03;5088619;28;20032;-75
2023/05/28 03:27:40;;;;;;;5.38;3.90;;;;;;;16.42;61.70;94848.06;5092178;28;20032;-77
2023/05/28 03:30:09;;;;;;;4.63;4.05;;;;;;;16.41;61.66;94849.31;5088943;28;20024;-75
2023/05/28 03:32:35;;;;;;;5.53;4.43;;;;;;;16.42;61.70;94848.84;5070703;28;20028;-76
2023/05/28 03:35:00;;;;;;;5.70;4.25;;;;;;;16.44;61.89;94856.69;5070150;28;20024;-77
2023/05/28 03:37:26;;;;;;;6.40;3.50;;;;;;;16.45;61.80;94847.09;5086686;28;20126;-75
2023/05/28 03:39:53;;;;;;;4.95;4.40;;;;;;;16.45;61.59;94847.88;5070464;28;20070;-76
2023/05/28 03:42:18;;;;;;;5.53;3.80;;;;;;;16.44;61.81;94849.13;5087014;28;20050;-76
2023/05/28 03:44:44;;;;;;;4.38;3.90;;;;;;;16.44;61.74;94843.56;5087304;28;20055;-76
2023/05/28 03:47:09;;;;;;;4.45;3.65;;;;;;;16.46;61.61;94841.09;5088032;28;20107;-76
2023/05/28 03:49:35;;;;;;;5.57;4.15;;;;;;;16.51;61.47;94845.19;5087002;28;20040;-76
2023/05/28 03:52:00;;;;;;;5.88;4.25;;;;;;;16.54;61.49;94841.47;5088175;28;20089;-77
2023/05/28 03:54:26;;;;;;;5.65;4.15;;;;;;;16.56;61.63;94841.00;5072163;28;20028;-77
2023/05/28 03:56:51;;;;;;;6.72;4.10;;;;;;;16.56;61.46;94843.75;5071901;28;20020;-76
2023/05/28 03:59:17;;;;;;;5.38;4.30;;;;;;;16.58;61.59;94847.59;5086495;28;20024;-75
2023/05/28 04:01:42;;;;;;;6.18;4.05;;;;;;;16.55;61.21;94842.25;5088334;28;20074;-76
2023/05/28 04:04:07;;;;;;;4.40;4.00;;;;;;;16.58;61.54;94844.06;5085680;28;20048;-76
2023/05/28 04:06:34;;;;;;;6.93;4.38;;;;;;;16.63;61.63;94851.69;5069714;28;20065;-76
2023/05/28 04:09:00;;;;;;;6.38;4.15;;;;;;;16.63;61.78;94849.72;5086488;28;20048;-76
2023/05/28 04:11:28;;;;;;;7.15;4.90;;;;;;;16.69;62.05;94847.03;5086814;28;20354;-76
2023/05/28 04:13:53;;;;;;;5.97;4.30;;;;;;;16.68;61.59;94849.03;5069940;28;20039;-75
2023/05/28 04:16:22;;;;;;;5.93;4.20;;;;;;;16.70;61.71;94852.13;5086944;28;20024;-76
2023/05/28 04:18:51;;;;;;;5.65;4.43;;;;;;;16.70;61.83;94857.69;5094027;28;20509;-76
2023/05/28 04:21:17;;;;;;;5.40;3.88;;;;;;;16.75;61.57;94853.47;5085953;28;20020;-76
2023/05/28 04:23:42;;;;;;;5.22;4.20;;;;;;;16.78;61.31;94851.75;5087965;28;20012;-76
2023/05/28 04:26:07;;;;;;;6.35;4.28;;;;;;;16.80;61.30;94852.00;5087247;28;20085;-76
2023/05/28 04:28:33;;;;;;;6.53;4.70;;;;;;;16.84;61.25;94856.13;5086399;28;20032;-75
2023/05/28 04:31:02;;;;;;;7.30;4.32;;;;;;;16.87;61.03;94859.97;5086087;28;20020;-76
2023/05/28 04:33:29;;;;;;;7.03;4.10;;;;;;;16.86;61.29;94862.00;5087294;28;20028;-77
2023/05/28 04:35:55;;;;;;;6.25;4.43;;;;;;;16.90;61.09;94862.53;5086459;28;20116;-77
2023/05/28 04:38:21;;;;;;;5.97;4.47;;;;;;;16.90;61.52;94859.75;5067874;28;20043;-76
2023/05/28 04:40:46;;;;;;;5.00;4.30;;;;;;;16.90;61.33;94861.78;5086266;28;20479;-77
2023/05/28 04:43:11;;;;;;;5.72;4.50;;;;;;;16.95;61.31;94852.78;5085518;28;20032;-76
2023/05/28 04:45:37;;;;;;;6.35;4.30;;;;;;;16.96;61.66;94862.63;5069102;28;20032;-76
2023/05/28 04:48:04;;;;;;;4.55;4.03;;;;;;;16.99;61.47;94856.91;5087081;28;20651;-76
2023/05/28 04:50:30;;;;;;;5.57;4.38;;;;;;;17.01;61.28;94859.19;5074772;28;20089;-77
2023/05/28 04:52:55;;;;;;;4.70;4.07;;;;;;;17.05;61.26;94861.78;5086326;28;20440;-76
2023/05/28 04:55:22;;;;;;;6.45;4.25;;;;;;;17.05;61.17;94859.75;5085172;28;20028;-77
2023/05/28 04:57:47;;;;;;;7.50;4.47;;;;;;;17.11;61.28;94865.41;5085994;28;20027;-76
2023/05/28 05:00:13;;;;;;;9.05;5.00;;;;;;;17.14;61.06;94864.44;5084828;28;20207;-77
2023/05/28 05:02:41;;;;;;;7.15;4.88;;;;;;;17.13;61.06;94862.91;5085787;28;20025;-76
2023/05/28 05:05:07;;;;;;;6.00;4.90;;;;;;;17.03;61.03;94862.25;5084982;28;20047;-77
2023/05/28 05:07:36;;;;;;;7.18;4.97;;;;;;;17.06;61.33;94864.06;5068925;28;20027;-76
2023/05/28 05:10:01;;;;;;;7.40;5.18;;;;;;;17.08;61.28;94872.66;5085478;28;20085;-76
2023/05/28 05:12:27;;;;;;;7.60;4.93;;;;;;;17.10;61.12;94867.41;5086076;28;20032;-77
2023/05/28 05:14:52;;;;;;;7.70;5.20;;;;;;;17.12;60.96;94864.91;5068692;28;20116;-76
2023/05/28 05:17:17;;;;;;;7.32;5.70;;;;;;;17.09;61.35;94863.13;5085877;28;20420;-75
2023/05/28 05:19:43;;;;;;;9.35;5.53;;;;;;;17.09;61.34;94870.66;5085544;28;20099;-75
2023/05/28 05:22:08;;;;;;;6.32;4.93;;;;;;;17.10;61.01;94863.88;5085807;28;20394;-76
2023/05/28 05:24:34;;;;;;;6.78;4.82;;;;;;;17.07;61.31;94859.28;5090498;28;20028;-76
2023/05/28 05:26:59;;;;;;;10.18;6.03;;;;;;;17.10;61.20;94855.53;5085397;28;20027;-75
2023/05/28 05:29:25;;;;;;;9.60;5.18;;;;;;;17.13;61.49;94855.34;5084974;28;20024;-77
2023/05/28 05:31:50;;;;;;;8.80;6.45;;;;;;;17.17;61.29;94850.34;5068316;28;20031;-76
2023/05/28 05:34:16;;;;;;;7.28;5.45;;;;;;;17.22;61.41;94844.13;5085899;28;20473;-76
2023/05/28 05:36:41;;;;;;;8.07;5.15;;;;;;;17.33;61.47;94857.41;5084928;28;20028;-77
2023/05/28 05:39:08;;;;;;;8.55;5.50;;;;;;;17.41;61.12;94855.75;5085750;28;20391;-77
2023/05/28 05:41:34;;;;;;;7.72;5.05;;;;;;;17.49;60.95;94861.66;5085074;28;20020;-76
2023/05/28 05:43:59;;;;;;;6.13;5.18;;;;;;;17.52;60.81;94864.25;5067970;28;20074;-76
2023/05/28 05:46:24;;;;;;;7.35;5.53;;;;;;;17.57;60.63;94867.59;5088762;28;20088;-76
2023/05/28 05:48:50;;;;;;;6.93;5.70;;;;;;;17.62;59.70;94866.91;5097294;28;20414;-77
2023/05/28 05:51:18;;;;;;;7.50;6.28;;;;;;;17.62;59.21;94861.34;5088831;28;20028;-76
2023/05/28 05:53:44;;;;;;;9.40;5.88;;;;;;;17.66;59.43;94867.44;5086921;28;20031;-76
2023/05/28 05:56:10;;;;;;;6.15;5.53;;;;;;;17.70;59.58;94862.47;5084161;28;20581;-77
2023/05/28 05:58:35;;;;;;;7.40;5.85;;;;;;;17.71;59.85;94864.75;5084672;28;20112;-77
2023/05/28 06:01:01;;;;;;;8.45;6.30;;;;;;;17.76;59.96;94857.75;5084473;28;20047;-76
2023/05/28 06:03:28;;;;;;;9.18;6.13;;;;;;;17.78;60.08;94869.19;5083918;28;20044;-76
2023/05/28 06:05:54;;;;;;;7.65;6.07;;;;;;;17.75;59.37;94865.34;5084298;28;20495;-83
2023/05/28 06:08:20;;;;;;;6.88;5.40;;;;;;;17.78;59.10;94872.72;5067515;28;20032;-78
2023/05/28 06:10:47;;;;;;;9.75;6.63;;;;;;;17.79;59.30;94873.47;5086076;28;20035;-78
2023/05/28 06:13:13;;;;;;;10.10;7.80;;;;;;;17.75;59.74;94876.47;5067067;28;20032;-73
2023/05/28 06:15:39;;;;;;;9.45;6.90;;;;;;;17.78;60.50;94863.63;5084537;28;20093;-77
2023/05/28 06:18:04;;;;;;;9.75;7.38;;;;;;;17.84;60.79;94875.56;5066767;28;20448;-78
2023/05/28 06:20:30;;;;;;;8.88;6.68;;;;;;;17.89;60.87;94871.31;5084076;28;20133;-79
2023/05/28 06:22:56;;;;;;;8.23;6.60;;;;;;;17.91;60.55;94877.19;5085482;28;20032;-78
2023/05/28 06:25:22;;;;;;;7.70;5.93;;;;;;;17.93;59.48;94880.97;5084145;28;20027;-77
2023/05/28 06:27:48;;;;;;;7.72;5.95;;;;;;;17.86;59.90;94875.84;5089779;28;20012;-76
2023/05/28 06:30:14;;;;;;;7.15;5.38;;;;;;;17.90;59.57;94881.22;5088142;28;20398;-77
2023/05/28 06:32:40;;;;;;;8.25;5.47;;;;;;;17.85;59.72;94885.44;5067219;28;20482;-77
2023/05/28 06:35:07;;;;;;;8.23;6.20;;;;;;;17.87;59.92;94890.50;5083002;28;20028;-77
2023/05/28 06:37:34;;;;;;;7.78;6.10;;;;;;;17.85;60.41;94885.44;5083606;28;20096;-78
2023/05/28 06:40:00;;;;;;;10.13;6.05;;;;;;;17.91;60.72;94877.94;5085466;28;20032;-76
2023/05/28 06:42:25;;;;;;;7.78;6.20;;;;;;;17.95;60.61;94894.41;5088913;28;20512;-76
2023/05/28 06:44:51;;;;;;;8.38;6.93;;;;;;;17.96;61.08;94887.59;5067074;28;20631;-76
2023/05/28 06:47:16;;;;;;;8.55;6.53;;;;;;;17.99;61.18;94883.84;5083486;28;20032;-78
2023/05/28 06:49:42;;;;;;;7.65;6.10;;;;;;;17.99;61.19;94892.94;5083841;28;20024;-77
2023/05/28 06:52:07;;;;;;;8.77;6.63;;;;;;;18.04;61.16;94888.72;5083576;28;20028;-76
2023/05/28 06:54:33;;;;;;;7.85;6.32;;;;;;;18.11;61.29;94881.97;5066932;28;20024;-80
2023/05/28 06:56:59;;;;;;;7.90;6.65;;;;;;;18.18;61.38;94893.44;5083490;28;20032;-78
2023/05/28 06:59:25;;;;;;;8.10;6.72;;;;;;;18.23;61.26;94884.38;5083781;28;20019;-77
2023/05/28 07:01:50;;;;;;;9.43;7.32;;;;;;;18.27;60.91;94884.94;5084294;28;20509;-77
2023/05/28 07:04:16;;;;;;;8.40;7.50;;;;;;;18.22;61.14;94888.41;5083648;28;20043;-77
2023/05/28 07:06:41;;;;;;;9.85;7.40;;;;;;;18.26;61.04;94897.31;5066562;28;20024;-78
2023/05/28 07:09:07;;;;;;;9.20;7.18;;;;;;;18.34;61.28;94897.66;5083655;28;20383;-78
2023/05/28 07:11:32;;;;;;;11.60;7.72;;;;;;;18.40;61.35;94892.16;5085166;28;20097;-77
2023/05/28 07:13:58;;;;;;;10.98;8.02;;;;;;;18.50;61.06;94887.97;5065772;28;20102;-77
2023/05/28 07:16:23;;;;;;;8.65;7.50;;;;;;;18.58;60.69;94886.28;5084911;28;20024;-78
2023/05/28 07:18:48;;;;;;;8.77;7.25;;;;;;;18.67;60.81;94886.16;5065767;28;20035;-79
2023/05/28 07:21:14;;;;;;;13.05;8.00;;;;;;;18.68;60.02;94884.88;5083564;28;20035;-77
2023/05/28 07:23:39;;;;;;;13.18;8.55;;;;;;;18.63;60.81;94885.56;5082990;28;20065;-77
2023/05/28 07:26:05;;;;;;;10.43;7.80;;;;;;;18.67;60.19;94883.38;5083486;28;20028;-78
2023/05/28 07:28:31;;;;;;;11.30;7.63;;;;;;;18.73;60.30;94883.41;5083324;28;20035;-76
2023/05/28 07:30:56;;;;;;;6.72;5.65;;;;;;;18.87;59.55;94881.75;5066184;28;20451;-77
2023/05/28 07:33:22;;;;;;;8.88;6.90;;;;;;;18.86;59.04;94881.00;5087512;28;20028;-75
2023/05/28 07:35:47;;;;;;;8.27;5.75;;;;;;;18.87;58.91;94890.13;5085818;28;20066;-77
2023/05/28 07:38:14;;;;;;;6.32;5.68;;;;;;;18.96;58.68;94879.56;5088075;28;20020;-77
2023/05/28 07:40:45;;;;;;;6.38;5.20;;;;;;;19.00;57.79;94873.78;5084647;28;20027;-78
2023/05/28 07:43:10;;;;;;;7.35;4.50;;;;;;;19.13;58.12;94882.50;5084922;28;20032;-78
2023/05/28 07:45:36;;;;;;;4.65;4.05;;;;;;;19.22;57.85;94882.34;5083039;28;20094;-78
2023/05/28 07:48:02;;;;;;;4.93;3.17;;;;;;;19.19;56.86;94877.75;5083192;28;20036;-78
2023/05/28 07:50:28;;;;;;;5.07;3.50;;;;;;;19.12;56.72;94869.84;5067129;28;20432;-82
2023/05/28 07:52:53;;;;;;;4.43;3.67;;;;;;;19.20;57.22;94876.47;5084004;28;20061;-80
2023/05/28 07:55:19;;;;;;;5.65;4.28;;;;;;;19.20;56.91;94870.91;5067135;28;20028;-76
2023/05/28 07:57:44;;;;;;;6.32;3.70;;;;;;;19.15;57.08;94876.44;5066037;28;20027;-78
2023/05/28 08:00:11;;;;;;;6.78;3.22;;;;;;;19.11;57.11;94873.88;5083346;28;20051;-78
2023/05/28 08:02:36;;;;;;;3.95;3.22;;;;;;;19.04;56.80;94874.34;5082891;28;20032;-77
2023/05/28 08:05:02;;;;;;;6.30;2.75;;;;;;;19.08;56.24;94878.41;5082874;28;20581;-75
2023/05/28 08:07:28;;;;;;;4.55;2.65;;;;;;;19.05;57.12;94868.28;5083656;28;20035;-76
2023/05/28 08:09:54;;;;;;;5.03;3.33;;;;;;;19.04;56.90;94872.31;5089193;28;20067;-76
2023/05/28 08:12:19;;;;;;;5.43;3.20;;;;;;;19.01;57.34;94872.53;5093426;28;20466;-77
2023/05/28 08:14:46;;;;;;;4.50;3.45;;;;;;;19.08;56.97;94860.94;5088898;28;20502;-83
2023/05/28 08:17:11;;;;;;;4.95;3.28;;;;;;;19.18;57.00;94873.44;5089191;28;20023;-79
2023/05/28 08:19:38;;;;;;;7.10;3.50;;;;;;;19.23;56.77;94874.75;5086444;28;20024;-82
2023/05/28 08:22:04;;;;;;;5.18;3.53;;;;;;;19.31;55.84;94867.44;5070227;28;20096;-81
2023/05/28 08:24:30;;;;;;;5.22;3.53;;;;;;;19.33;55.67;94871.28;5069591;28;20028;-78
2023/05/28 08:26:55;;;;;;;4.47;3.53;;;;;;;19.36;55.53;94873.06;5088645;28;20020;-80
2023/05/28 08:29:22;;;;;;;6.65;3.88;;;;;;;19.48;55.97;94867.56;5088380;28;20089;-81
2023/05/28 08:31:49;;;;;;;5.95;4.00;;;;;;;19.50;55.82;94874.19;5096043;28;20052;-80
2023/05/28 08:34:15;;;;;;;4.60;3.58;;;;;;;19.56;55.33;94874.22;5094447;28;20028;-81
2023/05/28 08:36:41;;;;;;;5.10;3.80;;;;;;;19.62;55.04;94869.47;5090392;28;20020;-83
2023/05/28 08:39:09;;;;;;;5.82;3.65;;;;;;;19.63;55.24;94868.97;5086884;28;20529;-79
2023/05/28 08:41:44;;;;;;;5.60;3.63;;;;;;;19.66;55.01;94872.75;5104021;28;20023;-80
2023/05/28 08:44:11;;;;;;;9.63;4.43;;;;;;;19.59;55.38;94867.66;5087795;28;20044;-76
2023/05/28 08:46:47;;;;;;;4.85;3.58;;;;;;;19.62;55.13;94877.81;5086074;28;20063;-78
2023/05/28 08:49:14;;;;;;;4.53;3.00;;;;;;;19.56;55.09;94879.78;5086362;28;20017;-78
2023/05/28 08:51:41;;;;;;;2.63;1.92;;;;;;;19.48;54.60;94879.47;5069901;28;20028;-78
2023/05/28 08:54:08;;;;;;;3.80;2.17;;;;;;;19.49;55.02;94877.44;5068351;28;20052;-78
2023/05/28 08:56:34;;;;;;;3.85;2.28;;;;;;;19.40;55.04;94883.97;5086857;28;20024;-78
2023/05/28 08:59:00;;;;;;;3.83;2.45;;;;;;;19.42;54.75;94884.25;5085152;28;20082;-78
2023/05/28 09:01:27;;;;;;;3.53;2.53;;;;;;;19.51;54.96;94889.63;5069325;28;20028;-78
2023/05/28 09:03:53;;;;;;;3.30;2.40;;;;;;;19.58;54.85;94875.25;5085254;28;20096;-77
2023/05/28 09:06:20;;;;;;;4.35;2.42;;;;;;;19.63;54.64;94870.97;5086352;28;20043;-77
2023/05/28 09:08:45;;;;;;;4.50;3.00;;;;;;;19.66;54.77;94872.00;5087133;28;20038;-78
2023/05/28 09:11:12;;;;;;;4.78;2.05;;;;;;;19.68;54.37;94872.28;5085560;28;20024;-79
2023/05/28 09:13:42;;;;;;;4.22;2.33;;;;;;;19.73;54.04;94868.78;5085876;28;20108;-78
2023/05/28 09:16:08;;;;;;;5.18;2.83;;;;;;;19.65;54.23;94856.53;5085417;28;20020;-78
2023/05/28 09:18:33;;;;;;;4.65;2.58;;;;;;;19.74;54.78;94862.69;5087831;28;20020;-78
2023/05/28 09:21:10;;;;;;;2.55;2.05;;;;;;;19.81;54.43;94862.22;5086380;28;20055;-78
2023/05/28 09:23:37;;;;;;;5.55;3.42;;;;;;;19.84;54.56;94866.00;5069296;28;20024;-78
2023/05/28 09:26:03;;;;;;;5.80;3.50;;;;;;;19.77;55.04;94867.25;5086142;28;20035;-77
2023/05/28 09:28:29;;;;;;;3.92;2.63;;;;;;;19.86;54.67;94864.25;5091609;28;20054;-79
2023/05/28 09:31:04;;;;;;;4.63;2.78;;;;;;;19.95;54.41;94868.09;5086329;28;20524;-78
2023/05/28 09:33:30;;;;;;;7.78;4.15;;;;;;;19.95;54.46;94852.13;5086307;28;20157;-79
2023/05/28 09:36:00;;;;;;;6.38;4.03;;;;;;;20.15;53.60;94865.91;5087659;28;20020;-79
2023/05/28 09:38:26;;;;;;;5.50;3.80;;;;;;;20.17;53.87;94868.19;5085052;28;20028;-79
2023/05/28 09:40:56;;;;;;;6.57;3.83;;;;;;;20.11;53.92;94868.16;5070485;28;20391;-78
2023/05/28 09:43:31;;;;;;;4.80;3.20;;;;;;;20.06;54.15;94870.94;5097478;28;20031;-78
2023/05/28 09:46:09;;;;;;;8.57;4.97;;;;;;;20.05;54.17;94875.75;5085255;28;20479;-78
2023/05/28 09:48:34;;;;;;;5.45;3.33;;;;;;;20.04;54.62;94882.59;5065894;28;20024;-78
2023/05/28 09:51:03;;;;;;;7.70;4.60;;;;;;;19.99;54.08;94877.00;5086146;28;20024;-78
2023/05/28 09:53:30;;;;;;;6.50;3.58;;;;;;;20.12;53.19;94874.50;5085447;28;20527;-78
2023/05/28 09:55:57;;;;;;;7.35;4.03;;;;;;;20.08;53.50;94865.63;5084719;28;20500;-79
2023/05/28 09:58:27;;;;;;;4.68;3.40;;;;;;;20.14;52.99;94872.00;5084992;28;20554;-77
2023/05/28 10:00:54;;;;;;;6.07;3.55;;;;;;;20.38;52.52;94872.34;5085057;28;20024;-78
2023/05/28 10:03:19;;;;;;;4.97;3.47;;;;;;;20.89;51.87;94878.06;5084107;28;20034;-78
2023/05/28 10:05:50;;;;;;;4.63;3.35;;;;;;;21.08;50.76;94872.72;5086652;28;20099;-80
2023/05/28 10:08:16;;;;;;;4.88;2.80;;;;;;;21.04;50.53;94872.22;5084160;28;20020;-79
2023/05/28 10:10:45;;;;;;;4.63;2.45;;;;;;;20.92;50.58;94860.28;5085044;28;20120;-80
2023/05/28 10:13:12;;;;;;;4.68;3.00;;;;;;;20.86;50.35;94865.84;5083600;28;20244;-79
2023/05/28 10:15:38;;;;;;;3.97;3.22;;;;;;;20.96;50.22;94869.16;5067918;28;20566;-79
2023/05/28 10:18:06;;;;;;;3.83;3.03;;;;;;;21.00;50.55;94872.47;5084425;28;20023;-78
2023/05/28 10:20:32;;;;;;;3.60;2.65;;;;;;;20.88;51.35;94870.94;5085674;28;20070;-79
2023/05/28 10:22:58;;;;;;;3.70;3.13;;;;;;;20.87;50.69;94867.41;5094726;28;20059;-79
2023/05/28 10:25:24;;;;;;;3.92;3.03;;;;;;;20.79;50.56;94874.72;5084360;28;20017;-79
2023/05/28 10:27:49;;;;;;;8.02;5.05;;;;;;;20.93;50.29;94873.75;5068249;28;20438;-80
2023/05/28 10:30:34;;;;;;;6.95;3.72;;;;;;;20.86;50.43;94868.66;5084278;28;20482;-80
2023/05/28 10:33:03;;;;;;;4.63;3.00;;;;;;;20.92;50.04;94857.47;5090862;28;20593;-78
2023/05/28 10:35:29;;;;;;;3.83;3.03;;;;;;;20.95;49.71;94862.81;5089282;28;20024;-80
2023/05/28 10:38:05;;;;;;;3.95;3.38;;;;;;;20.94;49.88;94854.97;5085628;28;20055;-79
2023/05/28 10:40:32;;;;;;;5.43;3.65;;;;;;;20.79;49.95;94857.97;5067706;28;20291;-79
2023/05/28 10:42:59;;;;;;;5.15;3.70;;;;;;;20.71;49.97;94856.97;5066619;28;20030;-80
2023/05/28 10:45:44;;;;;;;4.88;3.95;;;;;;;20.85;49.04;94855.19;5087767;28;20091;-79
2023/05/28 10:48:16;;;;;;;4.47;3.70;;;;;;;21.04;49.55;94839.44;5096459;28;20032;-79
2023/05/28 10:51:00;;;;;;;3.97;3.50;;;;;;;21.21;49.49;94837.41;5085701;28;20067;-79
2023/05/28 10:53:26;;;;;;;4.55;3.38;;;;;;;21.45;48.96;94836.91;5085568;28;20575;-80
2023/05/28 10:55:53;;;;;;;4.63;3.70;;;;;;;21.64;48.17;94819.59;5067710;28;20055;-80
2023/05/28 10:58:38;;;;;;;4.55;3.97;;;;;;;21.98;47.42;94826.59;5084285;28;20048;-79
2023/05/28 11:01:23;;;;;;;5.70;4.22;;;;;;;21.84;47.44;94829.69;5067338;28;20043;-80
2023/05/28 11:03:53;;;;;;;4.22;3.83;;;;;;;22.01;47.29;94833.19;5084281;28;20040;-79
2023/05/28 11:06:19;;;;;;;5.57;4.15;;;;;;;21.95;47.04;94819.22;5067186;28;20027;-80
2023/05/28 11:08:46;;;;;;;7.10;4.68;;;;;;;22.09;46.74;94830.63;5083271;28;20025;-79
2023/05/28 11:11:13;;;;;;;5.43;4.70;;;;;;;22.03;46.47;94830.66;5085512;28;20024;-80
2023/05/28 11:13:42;;;;;;;4.30;3.90;;;;;;;21.96;46.58;94829.16;5066365;28;20090;-78
2023/05/28 11:16:12;;;;;;;5.10;4.35;;;;;;;21.97;46.85;94827.13;5068749;28;20035;-78
2023/05/28 11:18:38;;;;;;;6.90;5.13;;;;;;;22.13;46.72;94825.53;5092534;28;20113;-80
2023/05/28 11:21:08;;;;;;;5.88;4.45;;;;;;;22.23;45.88;94830.31;5083702;28;20054;-79
2023/05/28 11:23:39;;;;;;;5.88;4.45;;;;;;;22.38;45.56;94820.84;5083854;28;20024;-80
2023/05/28 11:26:06;;;;;;;5.45;4.50;;;;;;;22.36;45.82;94812.94;5084576;28;20035;-80
2023/05/28 11:28:31;;;;;;;6.60;4.80;;;;;;;22.38;45.65;94816.00;5083664;28;20032;-80
2023/05/28 11:31:02;;;;;;;8.18;4.88;;;;;;;22.30;45.11;94812.22;5083299;28;20055;-80